Overview Statistics Trail Chart Weather Telemetry Raw packets
 

This is the latest recevied telemetry packets stored in our database for station/object IS0HHA-10. If no packets are shown the sender has not sent any telemetry packets the latest 10 day(s).

Telemetry packets is used to share measurements like repeteater parameters, battery voltage, radiation readings (or any other measurements).

<< 1 2 3 4 >>
Time Press* Temp.in* Hum* eGAS* Temp.out*
1788601011 1020.9 hPa 33 C deg 44.5 % 766 - 0 C deg
1788601011 1020.9 hPa 33 C deg 44.5 % 766 - 0 C deg
1788597335 1021.1 hPa 30.5 C deg 52.8 % 515 - 0 C deg
1788593710 1021.1 hPa 27.7 C deg 58.9 % 391 - 0 C deg
1788591848 1021 hPa 26.5 C deg 62.1 % 306 - 0 C deg
1788590037 1020.9 hPa 25 C deg 63.8 % 203 - 0 C deg
1788590037 1020.9 hPa 25 C deg 63.8 % 203 - 0 C deg
1788588187 1020.8 hPa 23.8 C deg 68.8 % 139 - 0 C deg
1788582687 1020.1 hPa 23.3 C deg 75.4 % 90 - 0 C deg
1788579026 1020.1 hPa 23.9 C deg 74.7 % 95 - 0 C deg
1788577276 1019.8 hPa 24.3 C deg 76.1 % 86 - 0 C deg
1788573548 1020.1 hPa 24.4 C deg 76.1 % 98 - 0 C deg
1788569902 1020.2 hPa 25.1 C deg 77.2 % 98 - 0 C deg
1788569884 1020.2 hPa 25.1 C deg 77.2 % 98 - 0 C deg
1788568063 1020.5 hPa 25.5 C deg 76.5 % 116 - 0 C deg
1788568056 1020.5 hPa 25.5 C deg 76.5 % 116 - 0 C deg
1788566226 1020.6 hPa 25.9 C deg 74.7 % 127 - 0 C deg
1788562568 1020.9 hPa 26.3 C deg 72 % 154 - 0 C deg
1788562568 1020.9 hPa 26.3 C deg 72 % 154 - 0 C deg
1788558895 1020.9 hPa 26.8 C deg 70 % 194 - 0 C deg
1788557067 1020.9 hPa 27.4 C deg 67 % 221 - 0 C deg
1788555235 1020.9 hPa 27.9 C deg 67.1 % 197 - 0 C deg
1788553411 1021.1 hPa 28.1 C deg 67 % 186 - 0 C deg
1788551575 1021.1 hPa 28.6 C deg 70.7 % 123 - 0 C deg
1788549762 1021 hPa 29.1 C deg 70.1 % 144 - 0 C deg
*Used Equation Coefficients:
Press: 0, 1, 0
Temp.in: 0, 1, 0
Hum: 0, 1, 0
eGAS: 0, 1, 0
Temp.out: 0, 1, 0

  • The parameter names for the analog channels will be Value1, Value2, Value3 (up to Value5) if station has not sent a PARAM-packet that specifies the parameter names for each analog channel.
  • Each analog value is a decimal number between 000 and 255 (according to APRS specifications). The receiver use the telemetry equation coefficientsto to restore the original sensor values. If no EQNS-packet with equation coefficients is sent we will show the values as is (this corresponds to the equation coefficients a=0, b=1 and c=0).
    The sent equation coefficients is used in the equation: a * value2 + b * value + c.
  • The units for the analog values will not be shown if station has not sent a UNIT-packet specifying what unit's to use.
  • The parameter names for the digital bits will be Bit1, Bit2, Bit3 (up to Bit8) if station has not sent a PARAM-packet that specifies the parameter names for each digital bit.
  • All bit labels will be named "On" if station has not sent a UNIT-packet that specifies the label of each bit.
  • A bit is considered to be On when the bit is 1 if station has not sent a BITS-packet that specifies another "Bit sense" (a BITS-packet specify the state of the bits that match the BIT labels)